メインページ
METAR-TAF:

METAR-TAF

空港 :

アトランタ, ジョージア州, アメリカ合衆国

ハーツフィールド・ジャクソン・アトランタ国際空港

緯度: 33-38-25N, 経度: 084-25-37W, 海抜: 313m

現時点の気象観測

当レポートは1時間16分前の20:52(UTC)に作成
の風 13kt
気温 24°C
湿度 54%
気圧 1024 hPa
視程: 16.1km
高度4500ftの雲は散在している
高度6500ftの千切れ雲あり
高度25000ftの千切れ雲あり

METAR: KATL 192052Z 17013KT 10SM SCT045 BKN065 BKN250 24/14 A3025 RMK AO2 SLP238 T02390139 55024

時間: 17:08 (22:08 UTC)

予報

当レポートは14分前の21:54(UTC)に作成
予報は19日の 22時(UTC)から 20日の 24時(UTC)まで有効
の風 12kt
視程: 10km
高度4500ftの雲は散在している
高度6000ftの千切れ雲あり
20日の 0200時(UTC)から
南東の風 7kt
視程: 10km
高度2500ftの千切れ雲あり
高度4000ftの千切れ雲あり
20日の 0700時(UTC)から
南東の風 5kt
視程: 6.4km
高度700ftの曇り
20日の 1000時(UTC)から
南東の風 6kt
視程: 1.6km
高度300ftの曇り
20日の 1600時(UTC)から
南/南東の風 7kt
視程: 10km
高度1000ftの千切れ雲あり
20日の 1900時(UTC)から
南/南東の風 7kt
視程: 10km
高度2500ftの千切れ雲あり

TAF: KATL 192154Z 1922/2024 17012KT P6SM SCT045 BKN060 FM200200 13007KT P6SM BKN025 BKN040 FM200700 14005KT 4SM BR OVC007 FM201000 14006KT 1SM BR OVC003 FM201600 15007KT P6SM BKN010 FM201900 15007KT P6SM BKN025

4,000以上の空港の気象観測と天気予報(METAR報とTAF報)

利用可能な観測所は地図上に黄色い丸と赤い丸で示す。

丸の上にカーソルを重ねると観測所名を参照できる。

次にクリックすると気象観測と天気予報を参照できる。

マップの切り替え:黒色「×」印の緑ボタンをクリックして拡大、「-」印の緑ボタンをクリックして縮小、緑色の三角印をクリックして隣りの地図に切り替え


METAR-TAF: